createdAt,value
2022-07-29T00:02:26.129Z,100839.41
2022-07-29T00:04:53.001Z,100863.63
2022-07-29T00:07:19.710Z,100850.78
2022-07-29T00:09:51.951Z,100867.34
2022-07-29T00:12:25.480Z,100860.75
2022-07-29T00:14:56.625Z,100860.25
2022-07-29T00:17:24.622Z,100805.66
2022-07-29T00:19:51.432Z,100860.53
2022-07-29T00:22:18.012Z,100823.69
2022-07-29T00:24:44.555Z,100842.22
2022-07-29T00:27:11.031Z,100825.50
2022-07-29T00:29:37.604Z,100807.22
2022-07-29T00:32:04.441Z,100823.16
2022-07-29T00:34:50.196Z,100837.41
2022-07-29T00:37:17.154Z,100840.06
2022-07-29T00:39:43.768Z,100810.31
2022-07-29T00:42:10.811Z,100831.47
2022-07-29T00:44:41.815Z,100822.63
2022-07-29T00:47:09.318Z,100811.69
2022-07-29T00:49:36.336Z,100761.19
2022-07-29T00:52:04.208Z,100822.88
2022-07-29T00:54:31.174Z,100820.53
2022-07-29T00:56:59.748Z,100773.16
2022-07-29T00:59:34.687Z,100815.22
2022-07-29T01:02:03.214Z,100784.00
2022-07-29T01:04:30.707Z,100806.34
2022-07-29T01:06:57.443Z,100755.03
2022-07-29T01:09:43.219Z,100792.53
2022-07-29T01:12:11.644Z,100772.41
2022-07-29T01:14:38.597Z,100778.56
2022-07-29T01:17:13.974Z,100766.50
2022-07-29T01:20:08.299Z,100787.75
2022-07-29T01:22:34.841Z,100790.31
2022-07-29T01:25:26.061Z,100789.53
2022-07-29T01:28:00.957Z,100788.59
2022-07-29T01:30:28.277Z,100778.53
2022-07-29T01:33:01.692Z,100749.31
2022-07-29T01:35:35.184Z,100744.69
2022-07-29T01:38:08.157Z,100776.91
2022-07-29T01:40:36.869Z,100752.97
2022-07-29T01:43:10.553Z,100783.13
2022-07-29T01:45:43.077Z,100754.59
2022-07-29T01:48:24.717Z,100724.53
2022-07-29T01:51:17.352Z,100773.31
2022-07-29T01:53:49.106Z,100752.16
2022-07-29T01:56:17.887Z,100765.25
2022-07-29T01:58:44.926Z,100761.41
2022-07-29T02:01:12.633Z,100727.00
2022-07-29T02:03:40.191Z,100758.88
2022-07-29T02:06:08.047Z,100734.78
2022-07-29T02:08:34.971Z,100767.00
2022-07-29T02:11:03.323Z,100752.59
2022-07-29T02:13:30.973Z,100759.72
2022-07-29T02:15:58.458Z,100714.97
2022-07-29T02:18:26.587Z,100711.84
2022-07-29T02:20:54.906Z,100735.19
2022-07-29T02:23:24.049Z,100755.06
2022-07-29T02:25:54.174Z,100758.50
2022-07-29T02:28:22.258Z,100703.84
2022-07-29T02:30:50.379Z,100708.28
2022-07-29T02:33:17.541Z,100709.56
2022-07-29T02:35:45.033Z,100757.97
2022-07-29T02:38:33.342Z,100756.78
2022-07-29T02:41:01.491Z,100725.75
2022-07-29T02:43:29.070Z,100749.00
2022-07-29T02:45:56.040Z,100741.50
2022-07-29T02:48:35.905Z,100709.94
2022-07-29T02:51:07.783Z,100743.97
2022-07-29T02:53:35.697Z,100752.09
2022-07-29T02:56:14.597Z,100758.22
2022-07-29T02:58:49.846Z,100727.47
2022-07-29T03:01:25.346Z,100756.66
2022-07-29T03:03:54.295Z,100749.38
2022-07-29T03:06:37.398Z,100716.00
2022-07-29T03:09:12.029Z,100724.88
2022-07-29T03:11:46.091Z,100726.38
2022-07-29T03:14:21.439Z,100745.91
2022-07-29T03:16:48.829Z,100703.13
2022-07-29T03:19:15.680Z,100708.63
2022-07-29T03:21:42.435Z,100733.66
2022-07-29T03:24:10.800Z,100740.75
2022-07-29T03:26:38.068Z,100738.91
2022-07-29T03:29:04.704Z,100747.75
2022-07-29T03:31:32.116Z,100746.13
2022-07-29T03:34:00.260Z,100725.75
2022-07-29T03:36:26.840Z,100724.59
2022-07-29T03:38:53.459Z,100733.66
2022-07-29T03:41:22.431Z,100729.31
2022-07-29T03:43:50.542Z,100732.84
2022-07-29T03:46:18.467Z,100694.31
2022-07-29T03:48:50.091Z,100721.75
2022-07-29T03:51:16.899Z,100724.03
2022-07-29T03:53:43.604Z,100711.44
2022-07-29T03:56:11.191Z,100722.00
2022-07-29T03:58:38.704Z,100714.03
2022-07-29T04:01:05.379Z,100713.34
2022-07-29T04:03:32.029Z,100695.66
2022-07-29T04:06:09.047Z,100705.84
2022-07-29T04:08:35.682Z,100706.47
2022-07-29T04:11:03.015Z,100708.22
2022-07-29T04:13:29.760Z,100704.00
2022-07-29T04:15:56.476Z,100711.09
2022-07-29T04:18:23.059Z,100713.69
2022-07-29T04:20:49.639Z,100701.84
2022-07-29T04:23:16.554Z,100704.91
2022-07-29T04:25:43.597Z,100731.16
2022-07-29T04:28:10.553Z,100728.09
2022-07-29T04:30:38.396Z,100725.91
2022-07-29T04:33:07.381Z,100723.00
2022-07-29T04:35:39.357Z,100733.16
2022-07-29T04:38:17.349Z,100700.75
2022-07-29T04:40:44.252Z,100663.38
2022-07-29T04:43:10.917Z,100693.19
2022-07-29T04:45:39.726Z,100695.91
2022-07-29T04:48:06.521Z,100717.16
2022-07-29T04:50:33.486Z,100678.00
2022-07-29T04:53:00.004Z,100694.84
2022-07-29T04:55:27.241Z,100733.47
2022-07-29T04:57:53.835Z,100727.22
2022-07-29T05:00:20.406Z,100724.44
2022-07-29T05:02:46.992Z,100749.22
2022-07-29T05:05:13.656Z,100737.84
2022-07-29T05:07:42.267Z,100717.59
2022-07-29T05:10:10.351Z,100756.91
2022-07-29T05:12:36.981Z,100776.78
2022-07-29T05:15:03.946Z,100748.50
2022-07-29T05:17:30.540Z,100773.63
2022-07-29T05:19:57.106Z,100757.13
2022-07-29T05:22:24.185Z,100800.28
2022-07-29T05:24:50.723Z,100805.09
2022-07-29T05:27:17.611Z,100816.41
2022-07-29T05:29:45.834Z,100817.97
2022-07-29T05:32:13.664Z,100753.16
2022-07-29T05:34:50.149Z,100762.47
2022-07-29T05:37:18.947Z,100769.00
2022-07-29T05:39:48.918Z,100784.13
2022-07-29T05:42:17.363Z,100803.22
2022-07-29T05:44:43.915Z,100819.50
2022-07-29T05:47:10.548Z,100805.56
2022-07-29T05:49:37.224Z,100814.28
2022-07-29T05:52:04.299Z,100819.41
2022-07-29T05:54:30.861Z,100796.16
2022-07-29T05:56:57.429Z,100818.81
2022-07-29T05:59:28.308Z,100828.22
2022-07-29T06:01:58.112Z,100824.22
2022-07-29T06:04:25.025Z,100826.19
2022-07-29T06:06:51.836Z,100829.38
2022-07-29T06:09:18.413Z,100820.03
2022-07-29T06:11:44.959Z,100812.25
2022-07-29T06:14:11.518Z,100825.00
2022-07-29T06:16:38.133Z,100821.03
2022-07-29T06:19:05.400Z,100827.09
2022-07-29T06:21:31.973Z,100834.84
2022-07-29T06:23:58.680Z,100803.78
2022-07-29T06:26:31.472Z,100795.06
2022-07-29T06:28:59.620Z,100823.97
2022-07-29T06:31:26.287Z,100844.31
2022-07-29T06:33:54.599Z,100841.03
2022-07-29T06:38:51.318Z,100822.97
2022-07-29T06:41:18.975Z,100818.72
2022-07-29T06:43:51.030Z,100835.53
2022-07-29T06:46:22.408Z,100832.88
2022-07-29T06:48:49.749Z,100804.81
2022-07-29T06:51:17.356Z,100826.59
2022-07-29T06:53:58.323Z,100810.06
2022-07-29T06:56:28.873Z,100848.34
2022-07-29T06:58:55.416Z,100835.84
2022-07-29T07:01:22.144Z,100833.56
2022-07-29T07:03:49.261Z,100814.53
2022-07-29T07:06:15.892Z,100843.97
2022-07-29T07:08:42.422Z,100858.81
2022-07-29T07:11:09.707Z,100858.38
2022-07-29T07:13:36.775Z,100849.94
2022-07-29T07:16:03.924Z,100814.75
2022-07-29T07:18:30.727Z,100823.75
2022-07-29T07:20:57.922Z,100849.88
2022-07-29T07:23:24.902Z,100837.28
2022-07-29T07:25:52.131Z,100859.63
2022-07-29T07:28:18.850Z,100819.56
2022-07-29T07:30:51.314Z,100839.59
2022-07-29T07:33:17.871Z,100840.28
2022-07-29T07:35:45.261Z,100836.53
2022-07-29T07:38:11.859Z,100810.00
2022-07-29T07:40:38.436Z,100838.66
2022-07-29T07:43:05.140Z,100825.25
2022-07-29T07:45:35.070Z,100806.75
2022-07-29T07:48:01.814Z,100834.91
2022-07-29T07:50:28.456Z,100836.81
2022-07-29T07:52:58.819Z,100831.09
2022-07-29T07:55:26.591Z,100828.06
2022-07-29T07:57:54.024Z,100825.81
2022-07-29T08:00:22.793Z,100826.66
2022-07-29T08:02:51.018Z,100831.09
2022-07-29T08:05:18.232Z,100822.09
2022-07-29T08:07:46.399Z,100826.13
2022-07-29T08:10:14.673Z,100826.09
2022-07-29T08:12:42.668Z,100822.31
2022-07-29T08:15:09.753Z,100815.22
2022-07-29T08:17:36.350Z,100826.78
2022-07-29T08:20:03.933Z,100781.94
2022-07-29T08:22:30.561Z,100820.28
2022-07-29T08:24:57.191Z,100831.06
2022-07-29T08:27:45.226Z,100810.16
2022-07-29T08:30:11.333Z,100800.97
2022-07-29T08:32:53.289Z,100812.22
2022-07-29T08:35:22.352Z,100831.41
2022-07-29T08:37:48.965Z,100831.16
2022-07-29T08:40:15.819Z,100833.63
2022-07-29T08:42:42.409Z,100748.25
2022-07-29T08:45:09.373Z,100838.44
2022-07-29T08:47:40.352Z,100837.38
2022-07-29T08:50:08.671Z,100792.28
2022-07-29T08:52:38.166Z,100832.00
2022-07-29T08:55:06.495Z,100823.78
2022-07-29T08:57:34.361Z,100825.09
2022-07-29T09:00:11.321Z,100822.03
2022-07-29T09:02:43.198Z,100824.53
2022-07-29T09:05:13.402Z,100816.00
2022-07-29T09:07:40.156Z,100792.38
2022-07-29T09:10:07.407Z,100773.09
2022-07-29T09:12:37.962Z,100793.91
2022-07-29T09:15:05.150Z,100790.28
2022-07-29T09:17:49.224Z,100791.97
2022-07-29T09:20:21.275Z,100791.94
2022-07-29T09:22:51.774Z,100782.91
2022-07-29T09:25:37.884Z,100788.53
2022-07-29T09:28:07.810Z,100797.91
2022-07-29T09:30:34.940Z,100790.78
2022-07-29T09:33:03.888Z,100792.28
2022-07-29T09:35:31.786Z,100776.50
2022-07-29T09:37:58.331Z,100771.22
2022-07-29T09:40:27.734Z,100763.34
2022-07-29T09:42:58.122Z,100783.16
2022-07-29T09:45:33.297Z,100765.59
2022-07-29T09:48:01.310Z,100774.22
2022-07-29T09:50:39.638Z,100775.81
2022-07-29T09:53:06.581Z,100789.63
2022-07-29T09:55:33.247Z,100776.22
2022-07-29T09:58:20.491Z,100782.59
2022-07-29T10:00:48.565Z,100764.81
2022-07-29T10:03:16.667Z,100771.25
2022-07-29T10:05:44.184Z,100767.72
2022-07-29T10:08:13.287Z,100778.66
2022-07-29T10:10:42.471Z,100774.03
2022-07-29T10:13:16.492Z,100733.84
2022-07-29T10:15:46.021Z,100727.00
2022-07-29T10:18:14.287Z,100779.84
2022-07-29T10:20:42.073Z,100769.91
2022-07-29T10:23:09.892Z,100776.59
2022-07-29T10:25:36.503Z,100765.78
2022-07-29T10:28:03.760Z,100740.56
2022-07-29T10:30:30.661Z,100761.38
2022-07-29T10:33:18.939Z,100769.28
2022-07-29T10:36:03.721Z,100768.53
2022-07-29T10:38:50.211Z,100759.22
2022-07-29T10:41:43.868Z,100777.09
2022-07-29T10:44:19.078Z,100764.69
2022-07-29T10:46:46.519Z,100776.47
2022-07-29T10:49:15.728Z,100775.13
2022-07-29T10:51:51.570Z,100783.78
2022-07-29T10:54:42.441Z,100739.63
2022-07-29T10:57:16.705Z,100773.06
2022-07-29T10:59:44.734Z,100774.72
2022-07-29T11:02:41.147Z,100752.56
2022-07-29T11:05:18.730Z,100784.84
2022-07-29T11:08:19.678Z,100782.44
2022-07-29T11:10:49.060Z,100787.31
2022-07-29T11:13:44.060Z,100786.75
2022-07-29T11:16:10.633Z,100789.63
2022-07-29T11:18:41.930Z,100779.75
2022-07-29T11:21:51.666Z,100787.72
2022-07-29T11:24:29.621Z,100769.94
2022-07-29T11:27:13.178Z,100799.69
2022-07-29T11:29:50.230Z,100809.00
2022-07-29T11:32:22.812Z,100793.28
2022-07-29T11:35:17.061Z,100807.44
2022-07-29T11:37:52.802Z,100800.81
2022-07-29T11:40:24.506Z,100801.78
2022-07-29T11:42:52.592Z,100790.66
2022-07-29T11:45:44.361Z,100799.31
2022-07-29T11:48:29.643Z,100790.59
2022-07-29T11:50:58.697Z,100810.31
2022-07-29T11:53:25.870Z,100779.69
2022-07-29T11:55:58.370Z,100787.91
2022-07-29T11:58:26.225Z,100807.63
2022-07-29T12:00:55.622Z,100804.41
2022-07-29T12:03:34.977Z,100792.66
2022-07-29T12:06:02.237Z,100791.84
2022-07-29T12:08:28.776Z,100789.81
2022-07-29T12:10:55.360Z,100804.06
2022-07-29T12:13:22.339Z,100790.06
2022-07-29T12:15:59.709Z,100809.03
2022-07-29T12:18:27.825Z,100803.72
2022-07-29T12:21:04.637Z,100761.09
2022-07-29T12:23:35.645Z,100809.41
2022-07-29T12:26:07.220Z,100807.28
2022-07-29T12:28:39.270Z,100777.41
2022-07-29T12:31:06.165Z,100808.28
2022-07-29T12:33:35.875Z,100809.50
2022-07-29T12:36:07.680Z,100807.16
2022-07-29T12:38:35.865Z,100803.59
2022-07-29T12:41:04.421Z,100804.56
2022-07-29T12:43:31.441Z,100804.84
2022-07-29T12:45:58.512Z,100777.59
2022-07-29T12:48:39.137Z,100766.09
2022-07-29T12:51:10.043Z,100803.56
2022-07-29T12:53:37.552Z,100763.97
2022-07-29T12:56:15.541Z,100771.81
2022-07-29T12:58:52.660Z,100792.28
2022-07-29T13:01:21.019Z,100780.97
2022-07-29T13:03:57.652Z,100796.84
2022-07-29T13:06:35.716Z,100802.16
2022-07-29T13:09:03.892Z,100801.59
2022-07-29T13:11:34.208Z,100797.25
2022-07-29T13:14:05.897Z,100782.84
2022-07-29T13:16:33.957Z,100771.72
2022-07-29T13:19:05.581Z,100794.84
2022-07-29T13:21:32.123Z,100772.75
2022-07-29T13:23:58.670Z,100783.56
2022-07-29T13:26:25.193Z,100806.88
2022-07-29T13:28:51.754Z,100798.06
2022-07-29T13:31:18.306Z,100785.38
2022-07-29T13:33:44.932Z,100797.81
2022-07-29T13:36:11.483Z,100774.22
2022-07-29T13:38:38.308Z,100791.66
2022-07-29T13:41:04.938Z,100796.13
2022-07-29T13:43:32.157Z,100778.25
2022-07-29T13:45:58.756Z,100792.75
2022-07-29T13:48:25.370Z,100699.31
2022-07-29T13:50:51.966Z,100771.59
2022-07-29T13:53:18.550Z,100770.91
2022-07-29T13:55:45.300Z,100794.19
2022-07-29T13:58:11.956Z,100787.94
2022-07-29T14:00:38.582Z,100805.13
2022-07-29T14:03:05.536Z,100804.53
2022-07-29T14:05:32.052Z,100802.28
2022-07-29T14:07:58.618Z,100801.63
2022-07-29T14:10:25.464Z,100763.06
2022-07-29T14:12:52.028Z,100813.84
2022-07-29T14:15:18.727Z,100802.88
2022-07-29T14:17:45.249Z,100808.63
2022-07-29T14:20:11.880Z,100799.47
2022-07-29T14:22:42.389Z,100808.75
2022-07-29T14:25:10.691Z,100811.63
2022-07-29T14:27:42.735Z,100811.22
2022-07-29T14:30:10.196Z,100809.69
2022-07-29T14:32:36.950Z,100807.41
2022-07-29T14:35:05.216Z,100805.91
2022-07-29T14:37:39.364Z,100791.09
2022-07-29T14:40:08.768Z,100800.63
2022-07-29T14:42:35.439Z,100810.44
2022-07-29T14:45:02.047Z,100773.44
2022-07-29T14:47:28.633Z,100774.59
2022-07-29T14:49:55.583Z,100798.09
2022-07-29T14:52:22.092Z,100809.59
2022-07-29T14:54:48.685Z,100810.25
2022-07-29T14:57:15.215Z,100804.25
2022-07-29T14:59:41.823Z,100808.88
2022-07-29T15:02:08.422Z,100801.34
2022-07-29T15:04:35.485Z,100808.81
2022-07-29T15:07:02.818Z,100812.50
2022-07-29T15:09:29.328Z,100782.22
2022-07-29T15:11:56.318Z,100774.84
2022-07-29T15:14:23.292Z,100787.31
2022-07-29T15:16:49.822Z,100775.31
2022-07-29T15:19:19.247Z,100801.84
2022-07-29T15:21:48.230Z,100776.41
2022-07-29T15:24:17.506Z,100797.78
2022-07-29T15:26:44.528Z,100777.84
2022-07-29T15:29:11.281Z,100797.38
2022-07-29T15:31:37.809Z,100798.91
2022-07-29T15:34:05.973Z,100785.41
2022-07-29T15:36:51.443Z,100774.50
2022-07-29T15:39:19.720Z,100792.91
2022-07-29T15:41:46.484Z,100757.78
2022-07-29T15:44:13.054Z,100746.13
2022-07-29T15:46:59.317Z,100780.19
2022-07-29T15:49:48.725Z,100780.56
2022-07-29T15:52:25.283Z,100780.63
2022-07-29T15:54:56.917Z,100779.31
2022-07-29T15:57:24.602Z,100784.03
2022-07-29T15:59:51.869Z,100771.44
2022-07-29T16:02:18.916Z,100786.06
2022-07-29T16:04:45.423Z,100788.41
2022-07-29T16:07:12.344Z,100760.09
2022-07-29T16:09:41.047Z,100787.84
2022-07-29T16:12:14.964Z,100783.34
2022-07-29T16:14:43.438Z,100755.31
2022-07-29T16:17:14.382Z,100783.03
2022-07-29T16:19:45.313Z,100781.28
2022-07-29T16:22:12.372Z,100727.03
2022-07-29T16:24:39.153Z,100782.16
2022-07-29T16:27:05.812Z,100773.84
2022-07-29T16:29:32.363Z,100781.41
2022-07-29T16:31:58.921Z,100787.59
2022-07-29T16:34:25.698Z,100783.13
2022-07-29T16:36:52.245Z,100740.19
2022-07-29T16:39:18.766Z,100790.56
2022-07-29T16:41:45.380Z,100733.84
2022-07-29T16:44:11.973Z,100776.97
2022-07-29T16:46:41.400Z,100785.19
2022-07-29T16:49:08.237Z,100784.22
2022-07-29T16:51:34.955Z,100786.72
2022-07-29T16:54:01.496Z,100791.81
2022-07-29T16:56:27.977Z,100780.09
2022-07-29T16:58:54.524Z,100754.59
2022-07-29T17:01:21.117Z,100764.16
2022-07-29T17:04:06.286Z,100770.84
2022-07-29T17:06:38.372Z,100768.72
2022-07-29T17:09:06.894Z,100789.88
2022-07-29T17:11:53.304Z,100790.22
2022-07-29T17:14:24.122Z,100789.00
2022-07-29T17:17:00.653Z,100789.44
2022-07-29T17:19:33.831Z,100793.44
2022-07-29T17:22:09.464Z,100795.94
2022-07-29T17:24:38.974Z,100799.44
2022-07-29T17:27:08.496Z,100792.94
2022-07-29T17:29:35.220Z,100778.91
2022-07-29T17:32:01.831Z,100793.38
2022-07-29T17:34:28.344Z,100746.81
2022-07-29T17:36:55.013Z,100784.72
2022-07-29T17:39:21.757Z,100793.53
2022-07-29T17:41:48.382Z,100801.91
2022-07-29T17:44:15.081Z,100797.09
2022-07-29T17:46:41.608Z,100809.88
2022-07-29T17:49:08.299Z,100810.88
2022-07-29T17:51:34.871Z,100819.78
2022-07-29T17:54:01.621Z,100779.72
2022-07-29T17:56:28.154Z,100816.13
2022-07-29T17:58:57.271Z,100819.88
2022-07-29T18:01:24.145Z,100811.97
2022-07-29T18:03:50.834Z,100818.28
2022-07-29T18:06:17.367Z,100811.97
2022-07-29T18:08:47.430Z,100809.94
2022-07-29T18:11:15.307Z,100777.78
2022-07-29T18:13:41.947Z,100802.44
2022-07-29T18:16:11.896Z,100800.75
2022-07-29T18:18:38.519Z,100806.38
2022-07-29T18:21:05.416Z,100807.56
2022-07-29T18:23:32.103Z,100826.34
2022-07-29T18:25:58.738Z,100826.69
2022-07-29T18:28:25.352Z,100781.75
2022-07-29T18:30:52.827Z,100798.63
2022-07-29T18:33:22.388Z,100798.28
2022-07-29T18:35:50.680Z,100792.63
2022-07-29T18:38:17.363Z,100826.19
2022-07-29T18:40:45.546Z,100829.06
2022-07-29T18:43:12.659Z,100828.19
2022-07-29T18:45:39.599Z,100805.06
2022-07-29T18:48:08.405Z,100838.50
2022-07-29T18:50:39.600Z,100838.19
2022-07-29T18:53:06.175Z,100831.97
2022-07-29T18:55:32.809Z,100846.06
2022-07-29T18:57:59.462Z,100837.88
2022-07-29T19:00:26.747Z,100856.63
2022-07-29T19:02:53.858Z,100850.41
2022-07-29T19:05:21.071Z,100850.88
2022-07-29T19:07:47.553Z,100864.91
2022-07-29T19:10:14.399Z,100867.84
2022-07-29T19:12:41.014Z,100847.03
2022-07-29T19:15:08.368Z,100869.84
2022-07-29T19:17:34.950Z,100869.63
2022-07-29T19:20:02.172Z,100835.34
2022-07-29T19:22:28.703Z,100883.84
2022-07-29T19:24:55.250Z,100887.19
2022-07-29T19:27:21.782Z,100891.16
2022-07-29T19:29:48.416Z,100887.44
2022-07-29T19:32:24.894Z,100893.50
2022-07-29T19:35:11.251Z,100896.81
2022-07-29T19:37:37.810Z,100893.69
2022-07-29T19:40:05.627Z,100892.66
2022-07-29T19:42:32.156Z,100840.06
2022-07-29T19:44:58.792Z,100897.69
2022-07-29T19:47:25.933Z,100898.13
2022-07-29T19:49:52.543Z,100873.00
2022-07-29T19:52:19.152Z,100902.03
2022-07-29T19:54:45.702Z,100911.44
2022-07-29T19:57:12.218Z,100907.84
2022-07-29T19:59:39.041Z,100912.19
2022-07-29T20:02:05.754Z,100910.63
2022-07-29T20:04:32.393Z,100910.34
2022-07-29T20:07:01.654Z,100913.72
2022-07-29T20:09:28.776Z,100882.94
2022-07-29T20:11:55.391Z,100920.00
2022-07-29T20:14:22.478Z,100861.47
2022-07-29T20:16:49.698Z,100919.38
2022-07-29T20:19:16.988Z,100872.09
2022-07-29T20:21:44.264Z,100929.78
2022-07-29T20:24:11.115Z,100883.94
2022-07-29T20:26:38.238Z,100914.06
2022-07-29T20:29:05.359Z,100933.88
2022-07-29T20:31:32.775Z,100924.47
2022-07-29T20:34:00.638Z,100926.56
2022-07-29T20:36:28.099Z,100901.94
2022-07-29T20:38:55.746Z,100898.22
2022-07-29T20:41:22.568Z,100920.81
2022-07-29T20:43:52.713Z,100925.03
2022-07-29T20:46:19.425Z,100923.34
2022-07-29T20:48:47.043Z,100921.81
2022-07-29T20:51:14.473Z,100910.19
2022-07-29T20:53:41.561Z,100910.50
2022-07-29T20:56:08.326Z,100893.13
2022-07-29T20:58:36.233Z,100910.56
2022-07-29T21:01:03.494Z,100907.94
2022-07-29T21:03:30.110Z,100908.78
2022-07-29T21:05:56.754Z,100904.69
2022-07-29T21:08:23.350Z,100881.78
2022-07-29T21:10:49.984Z,100922.75
2022-07-29T21:13:17.056Z,100926.22
2022-07-29T21:15:46.346Z,100928.25
2022-07-29T21:18:32.425Z,100929.16
2022-07-29T21:21:03.721Z,100928.75
2022-07-29T21:23:30.906Z,100936.34
2022-07-29T21:25:57.803Z,100922.19
2022-07-29T21:28:27.288Z,100921.09
2022-07-29T21:30:54.863Z,100917.91
2022-07-29T21:33:21.863Z,100887.66
2022-07-29T21:36:26.761Z,100943.19
2022-07-29T21:38:35.861Z,100942.22
2022-07-29T21:41:02.892Z,100946.63
2022-07-29T21:43:29.544Z,100910.78
2022-07-29T21:45:57.133Z,100936.81
2022-07-29T21:48:25.329Z,100910.28
2022-07-29T21:50:52.038Z,100905.84
2022-07-29T21:53:21.985Z,100927.06
2022-07-29T21:55:54.302Z,100935.22
2022-07-29T21:58:23.004Z,100907.97
2022-07-29T22:00:49.669Z,100942.50
2022-07-29T22:03:16.680Z,100921.25
2022-07-29T22:05:44.175Z,100932.22
2022-07-29T22:08:10.846Z,100940.97
2022-07-29T22:10:37.540Z,100928.38
2022-07-29T22:13:04.664Z,100910.69
2022-07-29T22:15:31.296Z,100894.97
2022-07-29T22:17:57.959Z,100881.09
2022-07-29T22:20:24.967Z,100829.63
2022-07-29T22:22:51.621Z,100944.31
2022-07-29T22:25:18.297Z,100910.59
2022-07-29T22:27:45.198Z,100936.84
2022-07-29T22:30:12.696Z,100928.56
2022-07-29T22:32:39.531Z,100913.56
2022-07-29T22:35:06.421Z,100934.91
2022-07-29T22:37:33.377Z,100942.09
2022-07-29T22:39:59.908Z,100939.59
2022-07-29T22:42:26.526Z,100955.38
2022-07-29T22:44:53.291Z,100938.13
2022-07-29T22:47:38.793Z,100956.22
2022-07-29T22:50:06.807Z,100927.09
2022-07-29T22:52:33.355Z,100926.97
2022-07-29T22:54:59.860Z,100938.50
2022-07-29T22:57:26.433Z,100907.13
2022-07-29T22:59:53.317Z,100901.59
2022-07-29T23:02:19.864Z,100947.34
2022-07-29T23:04:46.431Z,100950.13
2022-07-29T23:07:12.981Z,100947.91
2022-07-29T23:09:39.825Z,100909.47
2022-07-29T23:12:06.919Z,100933.75
2022-07-29T23:14:33.588Z,100935.19
2022-07-29T23:17:00.568Z,100921.47
2022-07-29T23:19:27.397Z,100928.31
2022-07-29T23:21:54.048Z,100908.31
2022-07-29T23:24:20.627Z,100865.47
2022-07-29T23:26:47.155Z,100909.47
2022-07-29T23:29:13.664Z,100935.00
2022-07-29T23:31:47.766Z,100909.91
2022-07-29T23:34:14.870Z,100933.59
2022-07-29T23:36:42.325Z,100908.50
2022-07-29T23:39:13.226Z,100921.69
2022-07-29T23:41:40.027Z,100879.84
2022-07-29T23:44:06.619Z,100898.59
2022-07-29T23:46:33.352Z,100883.22
2022-07-29T23:49:00.419Z,100908.34
2022-07-29T23:51:29.101Z,100909.56
2022-07-29T23:53:56.177Z,100878.88
2022-07-29T23:56:23.241Z,100900.38
2022-07-29T23:58:50.114Z,100917.09
